sensor_id;sensor_type;location;lat;lon;timestamp;pressure;altitude;pressure_sealevel;temperature;humidity
62849;BME280;48941;49.516;8.286;2024-03-06T00:01:23;100532.88;;;7.20;100.00
62849;BME280;48941;49.516;8.286;2024-03-06T00:03:51;100535.84;;;7.15;100.00
62849;BME280;48941;49.516;8.286;2024-03-06T00:06:19;100533.94;;;7.17;100.00
62849;BME280;48941;49.516;8.286;2024-03-06T00:08:47;100536.88;;;7.13;100.00
62849;BME280;48941;49.516;8.286;2024-03-06T00:11:16;100530.81;;;7.11;100.00
62849;BME280;48941;49.516;8.286;2024-03-06T00:13:45;100533.00;;;7.04;100.00
62849;BME280;48941;49.516;8.286;2024-03-06T00:16:14;100538.50;;;7.01;100.00
62849;BME280;48941;49.516;8.286;2024-03-06T00:18:45;100549.38;;;6.96;100.00
62849;BME280;48941;49.516;8.286;2024-03-06T00:21:15;100545.03;;;6.95;100.00
62849;BME280;48941;49.516;8.286;2024-03-06T00:23:43;100546.84;;;6.95;100.00
62849;BME280;48941;49.516;8.286;2024-03-06T00:26:12;100547.84;;;6.92;100.00
62849;BME280;48941;49.516;8.286;2024-03-06T00:28:42;100544.47;;;6.90;100.00
62849;BME280;48941;49.516;8.286;2024-03-06T00:31:10;100543.69;;;6.88;100.00
62849;BME280;48941;49.516;8.286;2024-03-06T00:33:37;100558.66;;;6.89;100.00
62849;BME280;48941;49.516;8.286;2024-03-06T00:36:06;100563.59;;;6.81;100.00
62849;BME280;48941;49.516;8.286;2024-03-06T00:38:34;100572.75;;;6.75;100.00
62849;BME280;48941;49.516;8.286;2024-03-06T00:41:02;100568.84;;;6.67;100.00
62849;BME280;48941;49.516;8.286;2024-03-06T00:43:30;100573.66;;;6.60;100.00
62849;BME280;48941;49.516;8.286;2024-03-06T00:45:59;100575.66;;;6.56;100.00
62849;BME280;48941;49.516;8.286;2024-03-06T00:48:27;100570.72;;;6.50;100.00
62849;BME280;48941;49.516;8.286;2024-03-06T00:50:54;100574.41;;;6.48;100.00
62849;BME280;48941;49.516;8.286;2024-03-06T00:53:22;100574.50;;;6.46;100.00
62849;BME280;48941;49.516;8.286;2024-03-06T00:55:51;100585.44;;;6.40;100.00
62849;BME280;48941;49.516;8.286;2024-03-06T00:58:18;100584.69;;;6.38;100.00
62849;BME280;48941;49.516;8.286;2024-03-06T01:00:47;100584.22;;;6.31;100.00
62849;BME280;48941;49.516;8.286;2024-03-06T01:03:16;100584.97;;;6.33;100.00
62849;BME280;48941;49.516;8.286;2024-03-06T01:05:43;100589.75;;;6.27;100.00
62849;BME280;48941;49.516;8.286;2024-03-06T01:08:11;100588.16;;;6.24;100.00
62849;BME280;48941;49.516;8.286;2024-03-06T01:10:39;100584.94;;;6.19;100.00
62849;BME280;48941;49.516;8.286;2024-03-06T01:13:07;100585.97;;;6.16;100.00
62849;BME280;48941;49.516;8.286;2024-03-06T01:15:37;100576.13;;;6.18;100.00
62849;BME280;48941;49.516;8.286;2024-03-06T01:18:05;100573.69;;;6.15;100.00
62849;BME280;48941;49.516;8.286;2024-03-06T01:20:34;100576.50;;;6.12;100.00
62849;BME280;48941;49.516;8.286;2024-03-06T01:23:02;100576.78;;;6.08;100.00
62849;BME280;48941;49.516;8.286;2024-03-06T01:25:30;100574.31;;;6.05;100.00
62849;BME280;48941;49.516;8.286;2024-03-06T01:27:58;100575.50;;;5.99;100.00
62849;BME280;48941;49.516;8.286;2024-03-06T01:30:26;100583.44;;;5.99;100.00
62849;BME280;48941;49.516;8.286;2024-03-06T01:32:53;100576.53;;;5.96;100.00
62849;BME280;48941;49.516;8.286;2024-03-06T01:35:21;100582.06;;;5.92;100.00
62849;BME280;48941;49.516;8.286;2024-03-06T01:37:51;100580.53;;;5.88;100.00
62849;BME280;48941;49.516;8.286;2024-03-06T01:40:19;100583.94;;;5.90;100.00
62849;BME280;48941;49.516;8.286;2024-03-06T01:42:47;100576.94;;;5.89;100.00
62849;BME280;48941;49.516;8.286;2024-03-06T01:45:15;100575.41;;;5.85;100.00
62849;BME280;48941;49.516;8.286;2024-03-06T01:47:43;100578.19;;;5.83;100.00
62849;BME280;48941;49.516;8.286;2024-03-06T01:50:11;100573.13;;;5.78;100.00
62849;BME280;48941;49.516;8.286;2024-03-06T01:52:41;100575.00;;;5.76;100.00
62849;BME280;48941;49.516;8.286;2024-03-06T01:55:12;100582.53;;;5.68;100.00
62849;BME280;48941;49.516;8.286;2024-03-06T01:57:40;100577.44;;;5.65;100.00
62849;BME280;48941;49.516;8.286;2024-03-06T02:00:09;100571.53;;;5.60;100.00
62849;BME280;48941;49.516;8.286;2024-03-06T02:02:41;100567.28;;;5.57;100.00
62849;BME280;48941;49.516;8.286;2024-03-06T02:05:10;100566.53;;;5.55;100.00
62849;BME280;48941;49.516;8.286;2024-03-06T02:07:39;100555.00;;;5.56;100.00
62849;BME280;48941;49.516;8.286;2024-03-06T02:10:07;100558.34;;;5.60;100.00
62849;BME280;48941;49.516;8.286;2024-03-06T02:12:40;100560.69;;;5.65;100.00
62849;BME280;48941;49.516;8.286;2024-03-06T02:15:09;100562.50;;;5.64;100.00
62849;BME280;48941;49.516;8.286;2024-03-06T02:17:40;100572.31;;;5.62;100.00
62849;BME280;48941;49.516;8.286;2024-03-06T02:20:08;100572.75;;;5.54;100.00
62849;BME280;48941;49.516;8.286;2024-03-06T02:22:40;100577.34;;;5.51;100.00
62849;BME280;48941;49.516;8.286;2024-03-06T02:25:08;100581.78;;;5.50;100.00
62849;BME280;48941;49.516;8.286;2024-03-06T02:27:36;100579.13;;;5.50;100.00
62849;BME280;48941;49.516;8.286;2024-03-06T02:30:05;100579.13;;;5.50;100.00
62849;BME280;48941;49.516;8.286;2024-03-06T02:32:33;100575.72;;;5.48;100.00
62849;BME280;48941;49.516;8.286;2024-03-06T02:35:01;100582.81;;;5.48;100.00
62849;BME280;48941;49.516;8.286;2024-03-06T02:37:30;100581.00;;;5.48;100.00
62849;BME280;48941;49.516;8.286;2024-03-06T02:40:01;100579.31;;;5.47;100.00
62849;BME280;48941;49.516;8.286;2024-03-06T02:42:29;100582.03;;;5.46;100.00
62849;BME280;48941;49.516;8.286;2024-03-06T02:44:57;100586.56;;;5.44;100.00
62849;BME280;48941;49.516;8.286;2024-03-06T02:47:25;100589.19;;;5.44;100.00
62849;BME280;48941;49.516;8.286;2024-03-06T02:49:53;100595.25;;;5.46;100.00
62849;BME280;48941;49.516;8.286;2024-03-06T02:52:21;100584.75;;;5.44;100.00
62849;BME280;48941;49.516;8.286;2024-03-06T02:54:48;100597.97;;;5.44;100.00
62849;BME280;48941;49.516;8.286;2024-03-06T02:57:17;100597.97;;;5.44;100.00
62849;BME280;48941;49.516;8.286;2024-03-06T02:59:46;100595.25;;;5.46;100.00
62849;BME280;48941;49.516;8.286;2024-03-06T03:02:13;100596.09;;;5.46;100.00
62849;BME280;48941;49.516;8.286;2024-03-06T03:04:41;100593.28;;;5.49;100.00
62849;BME280;48941;49.516;8.286;2024-03-06T03:07:10;100590.66;;;5.49;100.00
62849;BME280;48941;49.516;8.286;2024-03-06T03:09:38;100596.78;;;5.50;100.00
62849;BME280;48941;49.516;8.286;2024-03-06T03:12:06;100590.66;;;5.49;100.00
62849;BME280;48941;49.516;8.286;2024-03-06T03:14:35;100591.75;;;5.45;100.00
62849;BME280;48941;49.516;8.286;2024-03-06T03:17:06;100593.53;;;5.45;100.00
62849;BME280;48941;49.516;8.286;2024-03-06T03:19:34;100598.03;;;5.43;100.00
62849;BME280;48941;49.516;8.286;2024-03-06T03:22:02;100588.31;;;5.43;100.00
62849;BME280;48941;49.516;8.286;2024-03-06T03:24:31;100589.97;;;5.46;100.00
62849;BME280;48941;49.516;8.286;2024-03-06T03:26:59;100587.31;;;5.46;100.00
62849;BME280;48941;49.516;8.286;2024-03-06T03:29:27;100586.28;;;5.48;100.00
62849;BME280;48941;49.516;8.286;2024-03-06T03:31:57;100594.13;;;5.50;100.00
62849;BME280;48941;49.516;8.286;2024-03-06T03:34:25;100597.47;;;5.53;100.00
62849;BME280;48941;49.516;8.286;2024-03-06T03:36:53;100596.59;;;5.53;100.00
62849;BME280;48941;49.516;8.286;2024-03-06T03:39:20;100605.47;;;5.52;100.00
62849;BME280;48941;49.516;8.286;2024-03-06T03:41:51;100596.59;;;5.53;100.00
62849;BME280;48941;49.516;8.286;2024-03-06T03:44:19;100602.75;;;5.53;100.00
62849;BME280;48941;49.516;8.286;2024-03-06T03:46:46;100596.69;;;5.51;100.00
62849;BME280;48941;49.516;8.286;2024-03-06T03:49:16;100600.28;;;5.50;100.00
62849;BME280;48941;49.516;8.286;2024-03-06T03:51:44;100609.22;;;5.48;100.00
62849;BME280;48941;49.516;8.286;2024-03-06T03:54:11;100608.47;;;5.46;100.00
62849;BME280;48941;49.516;8.286;2024-03-06T03:56:39;100609.31;;;5.46;100.00
62849;BME280;48941;49.516;8.286;2024-03-06T03:59:07;100604.28;;;5.42;100.00
62849;BME280;48941;49.516;8.286;2024-03-06T04:01:35;100611.34;;;5.41;100.00
62849;BME280;48941;49.516;8.286;2024-03-06T04:04:03;100605.13;;;5.42;100.00
62849;BME280;48941;49.516;8.286;2024-03-06T04:06:32;100611.34;;;5.41;100.00
62849;BME280;48941;49.516;8.286;2024-03-06T04:09:00;100617.66;;;5.38;100.00
62849;BME280;48941;49.516;8.286;2024-03-06T04:11:28;100609.72;;;5.38;100.00
62849;BME280;48941;49.516;8.286;2024-03-06T04:13:57;100620.38;;;5.37;100.00
62849;BME280;48941;49.516;8.286;2024-03-06T04:16:24;100618.00;;;5.32;100.00
62849;BME280;48941;49.516;8.286;2024-03-06T04:18:52;100615.34;;;5.32;100.00
62849;BME280;48941;49.516;8.286;2024-03-06T04:21:20;100618.81;;;5.33;100.00
62849;BME280;48941;49.516;8.286;2024-03-06T04:23:50;100620.63;;;5.32;100.00
62849;BME280;48941;49.516;8.286;2024-03-06T04:26:18;100618.06;;;5.31;100.00
62849;BME280;48941;49.516;8.286;2024-03-06T04:28:47;100625.97;;;5.31;100.00
62849;BME280;48941;49.516;8.286;2024-03-06T04:31:15;100626.25;;;5.26;100.00
62849;BME280;48941;49.516;8.286;2024-03-06T04:33:43;100624.84;;;5.19;100.00
62849;BME280;48941;49.516;8.286;2024-03-06T04:36:10;100633.13;;;5.13;100.00
62849;BME280;48941;49.516;8.286;2024-03-06T04:38:38;100635.16;;;5.08;100.00
62849;BME280;48941;49.516;8.286;2024-03-06T04:41:07;100634.31;;;5.07;100.00
62849;BME280;48941;49.516;8.286;2024-03-06T04:43:37;100639.41;;;5.10;100.00
62849;BME280;48941;49.516;8.286;2024-03-06T04:46:05;100644.69;;;5.10;100.00
62849;BME280;48941;49.516;8.286;2024-03-06T04:48:33;100657.22;;;5.07;100.00
62849;BME280;48941;49.516;8.286;2024-03-06T04:51:01;100660.63;;;5.09;100.00
62849;BME280;48941;49.516;8.286;2024-03-06T04:53:28;100656.22;;;5.09;100.00
62849;BME280;48941;49.516;8.286;2024-03-06T04:55:57;100660.41;;;5.13;100.00
62849;BME280;48941;49.516;8.286;2024-03-06T04:58:26;100666.34;;;5.17;100.00
62849;BME280;48941;49.516;8.286;2024-03-06T05:00:54;100665.25;;;5.21;100.00
62849;BME280;48941;49.516;8.286;2024-03-06T05:03:22;100665.34;;;5.19;100.00
62849;BME280;48941;49.516;8.286;2024-03-06T05:06:07;100671.41;;;5.22;100.00
62849;BME280;48941;49.516;8.286;2024-03-06T05:08:52;100679.13;;;5.25;100.00
62849;BME280;48941;49.516;8.286;2024-03-06T05:11:37;100676.34;;;5.28;100.00
62849;BME280;48941;49.516;8.286;2024-03-06T05:14:24;100682.47;;;5.28;100.00
62849;BME280;48941;49.516;8.286;2024-03-06T05:17:10;100679.75;;;5.30;100.00
62849;BME280;48941;49.516;8.286;2024-03-06T05:19:55;100690.25;;;5.31;100.00
62849;BME280;48941;49.516;8.286;2024-03-06T05:22:41;100681.22;;;5.35;100.00
62849;BME280;48941;49.516;8.286;2024-03-06T05:25:26;100683.63;;;5.40;100.00
62849;BME280;48941;49.516;8.286;2024-03-06T05:28:11;100690.69;;;5.39;100.00
62849;BME280;48941;49.516;8.286;2024-03-06T05:30:58;100703.03;;;5.39;100.00
62849;BME280;48941;49.516;8.286;2024-03-06T05:33:44;100699.78;;;5.34;100.00
62849;BME280;48941;49.516;8.286;2024-03-06T05:36:30;100699.09;;;5.30;100.00
62849;BME280;48941;49.516;8.286;2024-03-06T05:39:15;100701.47;;;5.35;100.00
62849;BME280;48941;49.516;8.286;2024-03-06T05:42:02;100707.63;;;5.35;100.00
62849;BME280;48941;49.516;8.286;2024-03-06T05:44:48;100703.22;;;5.36;100.00
62849;BME280;48941;49.516;8.286;2024-03-06T05:47:35;100713.16;;;5.31;100.00
62849;BME280;48941;49.516;8.286;2024-03-06T05:50:22;100712.47;;;5.27;100.00
62849;BME280;48941;49.516;8.286;2024-03-06T05:53:07;100717.75;;;5.27;100.00
62849;BME280;48941;49.516;8.286;2024-03-06T05:55:53;100723.03;;;5.27;100.00
62849;BME280;48941;49.516;8.286;2024-03-06T05:58:38;100739.56;;;5.31;100.00
62849;BME280;48941;49.516;8.286;2024-03-06T06:01:06;100739.03;;;5.24;100.00
62849;BME280;48941;49.516;8.286;2024-03-06T06:03:36;100739.88;;;5.25;100.00
62849;BME280;48941;49.516;8.286;2024-03-06T06:06:05;100748.75;;;5.24;100.00
62849;BME280;48941;49.516;8.286;2024-03-06T06:08:33;100746.72;;;5.29;100.00
62849;BME280;48941;49.516;8.286;2024-03-06T06:11:02;100745.94;;;5.27;100.00
62849;BME280;48941;49.516;8.286;2024-03-06T06:13:30;100750.38;;;5.26;100.00
62849;BME280;48941;49.516;8.286;2024-03-06T06:15:58;100754.56;;;5.30;100.00
62849;BME280;48941;49.516;8.286;2024-03-06T06:18:26;100755.25;;;5.34;100.00
62849;BME280;48941;49.516;8.286;2024-03-06T06:20:55;100763.25;;;5.32;100.00
62849;BME280;48941;49.516;8.286;2024-03-06T06:23:23;100762.34;;;5.33;100.00
62849;BME280;48941;49.516;8.286;2024-03-06T06:25:51;100765.97;;;5.31;100.00
62849;BME280;48941;49.516;8.286;2024-03-06T06:28:19;100775.75;;;5.29;100.00
62849;BME280;48941;49.516;8.286;2024-03-06T06:30:47;100773.06;;;5.30;100.00
62849;BME280;48941;49.516;8.286;2024-03-06T06:33:14;100782.69;;;5.31;100.00
62849;BME280;48941;49.516;8.286;2024-03-06T06:35:42;100785.34;;;5.31;100.00
62849;BME280;48941;49.516;8.286;2024-03-06T06:38:11;100790.63;;;5.31;100.00
62849;BME280;48941;49.516;8.286;2024-03-06T06:40:39;100789.53;;;5.35;100.00
62849;BME280;48941;49.516;8.286;2024-03-06T06:43:08;100790.97;;;5.41;100.00
62849;BME280;48941;49.516;8.286;2024-03-06T06:45:36;100798.75;;;5.44;100.00
62849;BME280;48941;49.516;8.286;2024-03-06T06:48:05;100795.97;;;5.47;100.00
62849;BME280;48941;49.516;8.286;2024-03-06T06:50:35;100799.38;;;5.49;100.00
62849;BME280;48941;49.516;8.286;2024-03-06T06:53:03;100798.28;;;5.53;100.00
62849;BME280;48941;49.516;8.286;2024-03-06T06:55:33;100804.94;;;5.61;100.00
62849;BME280;48941;49.516;8.286;2024-03-06T06:58:00;100817.81;;;5.67;100.00
62849;BME280;48941;49.516;8.286;2024-03-06T07:00:28;100814.19;;;5.69;100.00
62849;BME280;48941;49.516;8.286;2024-03-06T07:02:57;100816.72;;;5.71;100.00
62849;BME280;48941;49.516;8.286;2024-03-06T07:05:25;100820.81;;;5.76;100.00
62849;BME280;48941;49.516;8.286;2024-03-06T07:07:54;100819.72;;;5.81;100.00
62849;BME280;48941;49.516;8.286;2024-03-06T07:10:22;100816.88;;;5.85;100.00
62849;BME280;48941;49.516;8.286;2024-03-06T07:12:51;100818.09;;;5.95;100.00
62849;BME280;48941;49.516;8.286;2024-03-06T07:15:19;100822.03;;;6.04;100.00
62849;BME280;48941;49.516;8.286;2024-03-06T07:17:47;100815.47;;;6.11;100.00
62849;BME280;48941;49.516;8.286;2024-03-06T07:20:15;100826.72;;;6.15;100.00
62849;BME280;48941;49.516;8.286;2024-03-06T07:22:43;100813.25;;;6.20;100.00
62849;BME280;48941;49.516;8.286;2024-03-06T07:25:11;100818.38;;;6.23;100.00
62849;BME280;48941;49.516;8.286;2024-03-06T07:27:39;100820.66;;;6.29;100.00
62849;BME280;48941;49.516;8.286;2024-03-06T07:30:09;100832.78;;;6.33;100.00
62849;BME280;48941;49.516;8.286;2024-03-06T07:32:40;100829.13;;;6.35;100.00
62849;BME280;48941;49.516;8.286;2024-03-06T07:35:08;100833.31;;;6.40;100.00
62849;BME280;48941;49.516;8.286;2024-03-06T07:37:36;100833.91;;;6.45;100.00
62849;BME280;48941;49.516;8.286;2024-03-06T07:40:05;100837.91;;;6.52;100.00
62849;BME280;48941;49.516;8.286;2024-03-06T07:42:35;100831.16;;;6.62;100.00
62849;BME280;48941;49.516;8.286;2024-03-06T07:45:04;100834.16;;;6.72;100.00
62849;BME280;48941;49.516;8.286;2024-03-06T07:47:35;100835.41;;;6.81;100.00
62849;BME280;48941;49.516;8.286;2024-03-06T07:50:04;100838.38;;;6.90;100.00
62849;BME280;48941;49.516;8.286;2024-03-06T07:52:34;100842.75;;;6.91;100.00
62849;BME280;48941;49.516;8.286;2024-03-06T07:55:02;100841.72;;;6.94;100.00
62849;BME280;48941;49.516;8.286;2024-03-06T07:57:32;100848.72;;;6.95;100.00
62849;BME280;48941;49.516;8.286;2024-03-06T07:59:59;100847.78;;;6.96;100.00
62849;BME280;48941;49.516;8.286;2024-03-06T08:02:27;100851.38;;;6.95;100.00
62849;BME280;48941;49.516;8.286;2024-03-06T08:04:57;100847.69;;;6.97;100.00
62849;BME280;48941;49.516;8.286;2024-03-06T08:07:25;100851.94;;;7.00;100.00
62849;BME280;48941;49.516;8.286;2024-03-06T08:09:54;100856.81;;;7.08;100.00
62849;BME280;48941;49.516;8.286;2024-03-06T08:12:22;100858.34;;;7.12;100.00
62849;BME280;48941;49.516;8.286;2024-03-06T08:14:50;100860.69;;;7.16;100.00
62849;BME280;48941;49.516;8.286;2024-03-06T08:17:18;100865.63;;;7.23;100.00
62849;BME280;48941;49.516;8.286;2024-03-06T08:19:46;100862.75;;;7.27;100.00
62849;BME280;48941;49.516;8.286;2024-03-06T08:22:15;100862.19;;;7.36;100.00
62849;BME280;48941;49.516;8.286;2024-03-06T08:24:43;100861.72;;;7.44;100.00
62849;BME280;48941;49.516;8.286;2024-03-06T08:27:11;100866.50;;;7.53;100.00
62849;BME280;48941;49.516;8.286;2024-03-06T08:29:39;100861.59;;;7.62;100.00
62849;BME280;48941;49.516;8.286;2024-03-06T08:32:07;100875.06;;;7.73;100.00
62849;BME280;48941;49.516;8.286;2024-03-06T08:34:35;100871.81;;;7.82;100.00
62849;BME280;48941;49.516;8.286;2024-03-06T08:37:03;100873.25;;;7.88;100.00
62849;BME280;48941;49.516;8.286;2024-03-06T08:39:33;100870.13;;;7.95;100.00
62849;BME280;48941;49.516;8.286;2024-03-06T08:42:02;100875.34;;;7.97;100.00
62849;BME280;48941;49.516;8.286;2024-03-06T08:44:30;100881.97;;;8.04;100.00
62849;BME280;48941;49.516;8.286;2024-03-06T08:46:58;100884.44;;;8.07;100.00
62849;BME280;48941;49.516;8.286;2024-03-06T08:49:26;100887.25;;;8.18;100.00
62849;BME280;48941;49.516;8.286;2024-03-06T08:51:54;100889.34;;;8.28;100.00
62849;BME280;48941;49.516;8.286;2024-03-06T08:54:23;100884.25;;;8.39;100.00
62849;BME280;48941;49.516;8.286;2024-03-06T08:56:53;100887.84;;;8.52;100.00
62849;BME280;48941;49.516;8.286;2024-03-06T08:59:24;100892.75;;;8.73;100.00
62849;BME280;48941;49.516;8.286;2024-03-06T09:01:54;100896.03;;;8.76;100.00
62849;BME280;48941;49.516;8.286;2024-03-06T09:04:22;100896.84;;;8.91;100.00
62849;BME280;48941;49.516;8.286;2024-03-06T09:06:50;100900.13;;;9.09;100.00
62849;BME280;48941;49.516;8.286;2024-03-06T09:09:18;100897.59;;;9.21;100.00
62849;BME280;48941;49.516;8.286;2024-03-06T09:11:46;100899.31;;;9.34;100.00
62849;BME280;48941;49.516;8.286;2024-03-06T09:14:16;100898.72;;;9.44;100.00
62849;BME280;48941;49.516;8.286;2024-03-06T09:16:44;100896.72;;;9.47;100.00
62849;BME280;48941;49.516;8.286;2024-03-06T09:19:12;100895.53;;;9.64;100.00
62849;BME280;48941;49.516;8.286;2024-03-06T09:21:44;100896.22;;;9.81;100.00
62849;BME280;48941;49.516;8.286;2024-03-06T09:24:12;100895.13;;;9.96;100.00
62849;BME280;48941;49.516;8.286;2024-03-06T09:26:40;100895.16;;;10.09;100.00
62849;BME280;48941;49.516;8.286;2024-03-06T09:29:08;100900.44;;;10.22;100.00
62849;BME280;48941;49.516;8.286;2024-03-06T09:31:38;100903.34;;;10.31;96.91
62849;BME280;48941;49.516;8.286;2024-03-06T09:34:06;100907.06;;;10.42;96.49
62849;BME280;48941;49.516;8.286;2024-03-06T09:36:34;100906.41;;;10.51;94.81
62849;BME280;48941;49.516;8.286;2024-03-06T09:39:01;100908.81;;;10.67;94.71
62849;BME280;48941;49.516;8.286;2024-03-06T09:41:31;100908.00;;;10.90;93.56
62849;BME280;48941;49.516;8.286;2024-03-06T09:43:59;100910.69;;;11.14;91.67
62849;BME280;48941;49.516;8.286;2024-03-06T09:46:27;100908.19;;;11.35;89.99
62849;BME280;48941;49.516;8.286;2024-03-06T09:48:57;100913.47;;;11.48;90.16
62849;BME280;48941;49.516;8.286;2024-03-06T09:51:26;100917.31;;;11.68;90.71
62849;BME280;48941;49.516;8.286;2024-03-06T09:53:54;100922.41;;;11.83;87.67
62849;BME280;48941;49.516;8.286;2024-03-06T09:56:22;100916.53;;;11.90;86.65
62849;BME280;48941;49.516;8.286;2024-03-06T09:58:51;100910.31;;;11.90;85.45
62849;BME280;48941;49.516;8.286;2024-03-06T10:01:21;100910.44;;;11.88;85.39
62849;BME280;48941;49.516;8.286;2024-03-06T10:03:53;100923.78;;;11.88;85.60
62849;BME280;48941;49.516;8.286;2024-03-06T10:06:22;100920.16;;;11.89;82.97
62849;BME280;48941;49.516;8.286;2024-03-06T10:08:50;100928.03;;;11.91;82.96
62849;BME280;48941;49.516;8.286;2024-03-06T10:11:18;100924.41;;;12.03;82.72
62849;BME280;48941;49.516;8.286;2024-03-06T10:13:46;100923.81;;;12.11;83.04
62849;BME280;48941;49.516;8.286;2024-03-06T10:16:17;100929.78;;;12.14;82.79
62849;BME280;48941;49.516;8.286;2024-03-06T10:18:46;100928.31;;;12.22;83.18
62849;BME280;48941;49.516;8.286;2024-03-06T10:21:14;100934.16;;;12.27;82.24
62849;BME280;48941;49.516;8.286;2024-03-06T10:23:46;100933.53;;;12.23;82.71
62849;BME280;48941;49.516;8.286;2024-03-06T10:26:15;100925.88;;;12.30;83.75
62849;BME280;48941;49.516;8.286;2024-03-06T10:28:44;100926.28;;;12.37;83.09
62849;BME280;48941;49.516;8.286;2024-03-06T10:31:12;100929.53;;;12.51;81.66
62849;BME280;48941;49.516;8.286;2024-03-06T10:33:42;100926.13;;;12.49;80.66
62849;BME280;48941;49.516;8.286;2024-03-06T10:36:10;100922.25;;;12.65;79.99
62849;BME280;48941;49.516;8.286;2024-03-06T10:38:42;100918.47;;;12.67;81.31
62849;BME280;48941;49.516;8.286;2024-03-06T10:41:13;100926.59;;;12.77;79.68
62849;BME280;48941;49.516;8.286;2024-03-06T10:43:47;100913.78;;;12.92;79.34
62849;BME280;48941;49.516;8.286;2024-03-06T10:46:20;100922.19;;;12.99;77.94
62849;BME280;48941;49.516;8.286;2024-03-06T10:48:48;100919.44;;;13.10;77.08
62849;BME280;48941;49.516;8.286;2024-03-06T10:51:18;100917.03;;;13.18;77.34
62849;BME280;48941;49.516;8.286;2024-03-06T10:53:48;100918.47;;;13.22;77.97
62849;BME280;48941;49.516;8.286;2024-03-06T10:56:20;100922.44;;;13.39;77.52
62849;BME280;48941;49.516;8.286;2024-03-06T10:58:50;100928.41;;;13.31;75.82
62849;BME280;48941;49.516;8.286;2024-03-06T11:01:18;100921.38;;;13.19;76.13
62849;BME280;48941;49.516;8.286;2024-03-06T11:03:47;100927.84;;;13.17;77.65
62849;BME280;48941;49.516;8.286;2024-03-06T11:06:15;100930.75;;;13.13;77.47
62849;BME280;48941;49.516;8.286;2024-03-06T11:08:44;100924.91;;;13.20;77.02
62849;BME280;48941;49.516;8.286;2024-03-06T11:11:20;100927.88;;;13.05;77.31
62849;BME280;48941;49.516;8.286;2024-03-06T11:13:49;100924.03;;;12.87;78.93
62849;BME280;48941;49.516;8.286;2024-03-06T11:16:17;100925.34;;;12.92;79.87
62849;BME280;48941;49.516;8.286;2024-03-06T11:18:45;100922.91;;;12.89;79.11
62849;BME280;48941;49.516;8.286;2024-03-06T11:21:29;100918.66;;;12.98;79.53
62849;BME280;48941;49.516;8.286;2024-03-06T11:24:17;100922.50;;;13.05;78.94
62849;BME280;48941;49.516;8.286;2024-03-06T11:26:55;100920.72;;;12.94;78.30
62849;BME280;48941;49.516;8.286;2024-03-06T11:29:26;100924.47;;;13.03;77.91
62849;BME280;48941;49.516;8.286;2024-03-06T11:32:03;100916.94;;;12.97;76.22
62849;BME280;48941;49.516;8.286;2024-03-06T11:34:34;100924.59;;;13.02;77.04
62849;BME280;48941;49.516;8.286;2024-03-06T11:37:06;100929.56;;;13.06;76.68
62849;BME280;48941;49.516;8.286;2024-03-06T11:39:37;100928.34;;;13.10;76.59
62849;BME280;48941;49.516;8.286;2024-03-06T11:42:06;100925.06;;;13.07;74.52
62849;BME280;48941;49.516;8.286;2024-03-06T11:44:36;100924.22;;;13.06;74.20
62849;BME280;48941;49.516;8.286;2024-03-06T11:47:05;100928.47;;;13.09;73.82
62849;BME280;48941;49.516;8.286;2024-03-06T11:49:35;100924.09;;;13.08;74.37
62849;BME280;48941;49.516;8.286;2024-03-06T11:52:06;100918.50;;;13.00;74.62
62849;BME280;48941;49.516;8.286;2024-03-06T11:54:34;100922.81;;;12.80;75.46
62849;BME280;48941;49.516;8.286;2024-03-06T11:57:04;100927.19;;;12.81;76.70
62849;BME280;48941;49.516;8.286;2024-03-06T11:59:35;100921.25;;;12.77;76.92
62849;BME280;48941;49.516;8.286;2024-03-06T12:02:06;100924.75;;;12.78;77.34
62849;BME280;48941;49.516;8.286;2024-03-06T12:04:35;100924.31;;;12.72;77.07
62849;BME280;48941;49.516;8.286;2024-03-06T12:07:05;100931.81;;;12.67;75.92
62849;BME280;48941;49.516;8.286;2024-03-06T12:09:35;100921.88;;;12.69;75.70
62849;BME280;48941;49.516;8.286;2024-03-06T12:12:08;100923.69;;;12.69;76.46
62849;BME280;48941;49.516;8.286;2024-03-06T12:14:38;100923.69;;;12.69;76.55
62849;BME280;48941;49.516;8.286;2024-03-06T12:17:12;100927.59;;;12.65;75.57
62849;BME280;48941;49.516;8.286;2024-03-06T12:19:42;100923.34;;;12.62;75.29
62849;BME280;48941;49.516;8.286;2024-03-06T12:22:11;100911.78;;;12.62;74.21
62849;BME280;48941;49.516;8.286;2024-03-06T12:24:40;100922.13;;;12.66;73.51
62849;BME280;48941;49.516;8.286;2024-03-06T12:27:08;100916.91;;;12.65;74.68
62849;BME280;48941;49.516;8.286;2024-03-06T12:29:36;100915.78;;;12.67;75.12
62849;BME280;48941;49.516;8.286;2024-03-06T12:32:15;100919.31;;;12.68;74.29
62849;BME280;48941;49.516;8.286;2024-03-06T12:34:56;100921.13;;;12.56;74.21
62849;BME280;48941;49.516;8.286;2024-03-06T12:37:28;100919.34;;;12.57;74.69
62849;BME280;48941;49.516;8.286;2024-03-06T12:40:01;100922.25;;;12.53;73.49
62849;BME280;48941;49.516;8.286;2024-03-06T12:42:31;100912.78;;;12.49;72.20
62849;BME280;48941;49.516;8.286;2024-03-06T12:44:59;100924.34;;;12.39;73.55
62849;BME280;48941;49.516;8.286;2024-03-06T12:47:28;100919.72;;;12.41;73.78
62849;BME280;48941;49.516;8.286;2024-03-06T12:49:56;100919.09;;;12.37;74.67
62849;BME280;48941;49.516;8.286;2024-03-06T12:52:26;100916.81;;;12.32;75.89
62849;BME280;48941;49.516;8.286;2024-03-06T12:54:53;100920.19;;;12.23;76.97
62849;BME280;48941;49.516;8.286;2024-03-06T12:57:21;100915.44;;;12.15;76.34
62849;BME280;48941;49.516;8.286;2024-03-06T12:59:49;100916.44;;;12.14;76.86
62849;BME280;48941;49.516;8.286;2024-03-06T13:02:17;100913.75;;;12.14;76.75
62849;BME280;48941;49.516;8.286;2024-03-06T13:04:47;100916.91;;;12.08;77.33